Time,TemperatureF,DewpointF,PressureIn,WindDirection,WindDirectionDegrees,WindSpeedMPH,WindSpeedGustMPH,Humidity,HourlyPrecipIn,Conditions,Clouds,dailyrainin,SoftwareType,DateUTC
2013-06-21 00:05:00,67.1,56.0,30.15,SSW,205,3.0,7.0,68,0.00,,,0.00,weatherlink.com 1.10,2013-06-21 04:05:00,
2013-06-21 00:20:00,66.7,56.0,30.15,SSE,167,3.0,5.0,69,0.00,,,0.00,weatherlink.com 1.10,2013-06-21 04:20:00,
2013-06-21 00:35:00,66.3,57.0,30.15,WSW,239,1.0,3.0,72,0.00,,,0.00,weatherlink.com 1.10,2013-06-21 04:35:00,
2013-06-21 00:50:00,65.8,57.0,30.14,SSE,167,2.0,6.0,72,0.00,,,0.00,weatherlink.com 1.10,2013-06-21 04:50:00,
2013-06-21 01:05:00,65.5,57.0,30.14,SSE,157,2.0,5.0,73,0.00,,,0.00,weatherlink.com 1.10,2013-06-21 05:05:00,
2013-06-21 01:20:00,65.2,57.0,30.14,WSW,249,1.0,4.0,74,0.00,,,0.00,weatherlink.com 1.10,2013-06-21 05:20:00,
2013-06-21 01:35:00,65.0,57.0,30.15,WSW,246,1.0,4.0,75,0.00,,,0.00,weatherlink.com 1.10,2013-06-21 05:35:00,
2013-06-21 01:50:00,64.6,57.0,30.14,WSW,239,2.0,6.0,76,0.00,,,0.00,weatherlink.com 1.10,2013-06-21 05:50:00,
2013-06-21 02:05:00,64.4,57.0,30.14,WSW,253,2.0,6.0,76,0.00,,,0.00,weatherlink.com 1.10,2013-06-21 06:05:00,
2013-06-21 02:20:00,64.7,57.0,30.15,WSW,256,5.0,6.0,76,0.00,,,0.00,weatherlink.com 1.10,2013-06-21 06:20:00,
2013-06-21 02:35:00,64.8,57.0,30.15,SW,217,3.0,8.0,76,0.00,,,0.00,weatherlink.com 1.10,2013-06-21 06:35:00,
2013-06-21 02:50:00,64.5,56.0,30.14,SW,227,3.0,7.0,75,0.00,,,0.00,weatherlink.com 1.10,2013-06-21 06:50:00,
2013-06-21 03:05:00,64.6,56.0,30.14,WSW,245,5.0,6.0,74,0.00,,,0.00,weatherlink.com 1.10,2013-06-21 07:05:00,
2013-06-21 03:20:00,64.5,56.0,30.14,SW,221,3.0,6.0,73,0.00,,,0.00,weatherlink.com 1.10,2013-06-21 07:20:00,
2013-06-21 03:35:00,64.2,56.0,30.14,WSW,242,3.0,6.0,74,0.00,,,0.00,weatherlink.com 1.10,2013-06-21 07:35:00,
2013-06-21 03:50:00,63.7,56.0,30.14,WSW,245,4.0,5.0,75,0.00,,,0.00,weatherlink.com 1.10,2013-06-21 07:50:00,
2013-06-21 04:05:00,63.3,56.0,30.13,WSW,240,2.0,5.0,76,0.00,,,0.00,weatherlink.com 1.10,2013-06-21 08:05:00,
2013-06-21 04:20:00,62.9,56.0,30.13,WSW,238,4.0,5.0,77,0.00,,,0.00,weatherlink.com 1.10,2013-06-21 08:20:00,
2013-06-21 04:35:00,62.6,56.0,30.13,WSW,245,5.0,6.0,78,0.00,,,0.00,weatherlink.com 1.10,2013-06-21 08:35:00,
2013-06-21 04:50:00,62.6,56.0,30.13,SW,229,3.0,6.0,78,0.00,,,0.00,weatherlink.com 1.10,2013-06-21 08:50:00,
2013-06-21 05:05:00,62.3,56.0,30.13,WSW,257,3.0,5.0,79,0.00,,,0.00,weatherlink.com 1.10,2013-06-21 09:05:00,
2013-06-21 05:20:00,62.2,55.0,30.13,WSW,246,3.0,6.0,78,0.00,,,0.00,weatherlink.com 1.10,2013-06-21 09:20:00,
2013-06-21 05:35:00,62.0,55.0,30.13,WSW,248,3.0,6.0,79,0.00,,,0.00,weatherlink.com 1.10,2013-06-21 09:35:00,
2013-06-21 05:50:00,61.9,55.0,30.12,WSW,240,3.0,5.0,79,0.00,,,0.00,weatherlink.com 1.10,2013-06-21 09:50:00,
2013-06-21 06:05:00,62.4,55.0,30.13,WSW,253,3.0,6.0,77,0.00,,,0.00,weatherlink.com 1.10,2013-06-21 10:05:00,
2013-06-21 06:20:00,62.9,55.0,30.13,SW,229,4.0,7.0,75,0.00,,,0.00,weatherlink.com 1.10,2013-06-21 10:20:00,
2013-06-21 06:35:00,63.7,55.0,30.14,SW,224,4.0,6.0,74,0.00,,,0.00,weatherlink.com 1.10,2013-06-21 10:35:00,
2013-06-21 06:50:00,64.4,55.0,30.14,WSW,238,2.0,6.0,72,0.00,,,0.00,weatherlink.com 1.10,2013-06-21 10:50:00,
2013-06-21 07:05:00,65.1,55.0,30.12,SW,233,3.0,7.0,71,0.00,,,0.00,weatherlink.com 1.10,2013-06-21 11:05:00,
2013-06-21 07:20:00,65.7,55.0,30.12,SW,232,3.0,8.0,69,0.00,,,0.00,weatherlink.com 1.10,2013-06-21 11:20:00,
2013-06-21 07:35:00,66.8,56.0,30.14,WSW,244,3.0,6.0,68,0.00,,,0.00,weatherlink.com 1.10,2013-06-21 11:35:00,
2013-06-21 07:50:00,67.2,56.0,30.16,WSW,248,3.0,8.0,68,0.00,,,0.00,weatherlink.com 1.10,2013-06-21 11:50:00,
2013-06-21 08:05:00,67.3,57.0,30.15,WSW,240,2.0,5.0,69,0.00,,,0.00,weatherlink.com 1.10,2013-06-21 12:05:00,
2013-06-21 08:21:00,68.5,57.0,30.15,WSW,253,3.0,8.0,67,0.00,,,0.00,weatherlink.com 1.10,2013-06-21 12:21:00,
2013-06-21 08:51:00,71.7,59.0,30.13,SSE,160,3.0,5.0,65,0.00,,,0.00,weatherlink.com 1.10,2013-06-21 12:51:00,
2013-06-21 09:06:00,73.6,59.0,30.12,SSE,160,3.0,6.0,61,0.00,,,0.00,weatherlink.com 1.10,2013-06-21 13:06:00,
2013-06-21 09:21:00,74.7,59.0,30.11,SSW,203,2.0,6.0,59,0.00,,,0.00,weatherlink.com 1.10,2013-06-21 13:21:00,
2013-06-21 09:36:00,75.6,60.0,30.10,South,175,1.0,7.0,59,0.00,,,0.00,weatherlink.com 1.10,2013-06-21 13:36:00,
2013-06-21 09:51:00,76.4,59.0,30.11,SSE,148,3.0,7.0,56,0.00,,,0.00,weatherlink.com 1.10,2013-06-21 13:51:00,
2013-06-21 10:06:00,77.9,61.0,30.12,WSW,241,0.0,5.0,57,0.00,,,0.00,weatherlink.com 1.10,2013-06-21 14:06:00,
2013-06-21 10:21:00,78.8,61.0,30.12,South,180,1.0,4.0,55,0.00,,,0.00,weatherlink.com 1.10,2013-06-21 14:21:00,
2013-06-21 10:36:00,80.0,62.0,30.12,SSE,158,5.0,8.0,55,0.00,,,0.00,weatherlink.com 1.10,2013-06-21 14:36:00,
2013-06-21 10:51:00,80.2,63.0,30.11,West,263,1.0,6.0,56,0.00,,,0.00,weatherlink.com 1.10,2013-06-21 14:51:00,
2013-06-21 11:21:00,80.8,63.0,30.12,West,278,3.0,6.0,55,0.00,,,0.00,weatherlink.com 1.10,2013-06-21 15:21:00,
2013-06-21 11:36:00,80.7,63.0,30.12,SSW,203,1.0,8.0,56,0.00,,,0.00,weatherlink.com 1.10,2013-06-21 15:36:00,
2013-06-21 11:51:00,81.1,64.0,30.12,SW,232,2.0,9.0,57,0.00,,,0.00,weatherlink.com 1.10,2013-06-21 15:51:00,
2013-06-21 12:06:00,82.7,65.0,30.11,West,277,1.0,7.0,56,0.00,,,0.00,weatherlink.com 1.10,2013-06-21 16:06:00,
2013-06-21 12:21:00,82.8,64.0,30.11,SW,231,3.0,7.0,54,0.00,,,0.00,weatherlink.com 1.10,2013-06-21 16:21:00,
2013-06-21 12:36:00,83.1,65.0,30.10,SE,146,4.0,7.0,55,0.00,,,0.00,weatherlink.com 1.10,2013-06-21 16:36:00,
2013-06-21 12:51:00,84.3,67.0,30.09,NW,319,2.0,8.0,56,0.00,,,0.00,weatherlink.com 1.10,2013-06-21 16:51:00,
2013-06-21 13:06:00,85.2,67.0,30.09,WSW,238,4.0,7.0,54,0.00,,,0.00,weatherlink.com 1.10,2013-06-21 17:06:00,
2013-06-21 13:21:00,85.1,66.0,30.09,WSW,243,6.0,7.0,53,0.00,,,0.00,weatherlink.com 1.10,2013-06-21 17:21:00,
2013-06-21 13:36:00,84.4,66.0,30.09,WSW,245,4.0,6.0,54,0.00,,,0.00,weatherlink.com 1.10,2013-06-21 17:36:00,
2013-06-21 13:51:00,84.1,66.0,30.09,SW,222,8.0,9.0,55,0.00,,,0.00,weatherlink.com 1.10,2013-06-21 17:51:00,
2013-06-21 14:22:00,83.9,65.0,30.08,SSW,212,2.0,10.0,54,0.00,,,0.00,weatherlink.com 1.10,2013-06-21 18:22:00,
2013-06-21 14:37:00,84.5,65.0,30.08,NW,312,2.0,9.0,52,0.00,,,0.00,weatherlink.com 1.10,2013-06-21 18:37:00,
2013-06-21 14:52:00,85.0,66.0,30.08,SW,217,2.0,9.0,53,0.00,,,0.00,weatherlink.com 1.10,2013-06-21 18:52:00,
2013-06-21 15:07:00,84.3,66.0,30.07,WSW,240,2.0,10.0,55,0.00,,,0.00,weatherlink.com 1.10,2013-06-21 19:07:00,
2013-06-21 15:22:00,85.4,65.0,30.06,WSW,247,2.0,7.0,51,0.00,,,0.00,weatherlink.com 1.10,2013-06-21 19:22:00,
2013-06-21 15:37:00,86.2,64.0,30.05,NW,304,6.0,9.0,48,0.00,,,0.00,weatherlink.com 1.10,2013-06-21 19:37:00,
2013-06-21 15:52:00,86.8,65.0,30.04,WNW,294,3.0,11.0,49,0.00,,,0.00,weatherlink.com 1.10,2013-06-21 19:52:00,
2013-06-21 16:07:00,85.8,64.0,30.03,West,280,9.0,10.0,48,0.00,,,0.00,weatherlink.com 1.10,2013-06-21 20:07:00,
2013-06-21 16:22:00,85.0,63.0,30.02,SW,217,5.0,16.0,48,0.00,,,0.00,weatherlink.com 1.10,2013-06-21 20:22:00,
2013-06-21 16:37:00,85.2,64.0,30.01,WSW,238,7.0,12.0,49,0.00,,,0.00,weatherlink.com 1.10,2013-06-21 20:37:00,
2013-06-21 16:52:00,85.4,63.0,30.00,SW,232,2.0,14.0,48,0.00,,,0.00,weatherlink.com 1.10,2013-06-21 20:52:00,
2013-06-21 17:07:00,87.0,64.0,29.99,SW,226,6.0,12.0,47,0.00,,,0.00,weatherlink.com 1.10,2013-06-21 21:07:00,
2013-06-21 17:22:00,86.5,63.0,29.98,West,266,3.0,16.0,46,0.00,,,0.00,weatherlink.com 1.10,2013-06-21 21:22:00,
2013-06-21 17:37:00,85.2,62.0,29.98,West,277,2.0,15.0,45,0.00,,,0.00,weatherlink.com 1.10,2013-06-21 21:37:00,
2013-06-21 17:52:00,84.3,62.0,29.98,SSW,211,2.0,13.0,47,0.00,,,0.00,weatherlink.com 1.10,2013-06-21 21:52:00,
2013-06-21 18:08:00,84.1,62.0,29.97,SW,214,3.0,16.0,47,0.00,,,0.00,weatherlink.com 1.10,2013-06-21 22:08:00,
2013-06-21 18:22:00,83.9,62.0,29.97,WSW,246,4.0,12.0,47,0.00,,,0.00,weatherlink.com 1.10,2013-06-21 22:22:00,
2013-06-21 18:37:00,83.9,63.0,29.97,SW,222,5.0,10.0,49,0.00,,,0.00,weatherlink.com 1.10,2013-06-21 22:37:00,
2013-06-21 18:52:00,83.9,62.0,29.97,SW,225,5.0,14.0,47,0.00,,,0.00,weatherlink.com 1.10,2013-06-21 22:52:00,
2013-06-21 19:07:00,84.3,61.0,29.97,SW,226,4.0,16.0,46,0.00,,,0.00,weatherlink.com 1.10,2013-06-21 23:07:00,
2013-06-21 19:22:00,84.7,62.0,29.97,SW,228,4.0,16.0,46,0.00,,,0.00,weatherlink.com 1.10,2013-06-21 23:22:00,
2013-06-21 19:37:00,84.7,63.0,29.97,SSE,165,4.0,9.0,49,0.00,,,0.00,weatherlink.com 1.10,2013-06-21 23:37:00,
2013-06-21 19:52:00,84.4,61.0,29.97,SW,236,4.0,16.0,46,0.00,,,0.00,weatherlink.com 1.10,2013-06-21 23:52:00,
2013-06-21 20:07:00,83.8,61.0,29.97,SSW,207,4.0,13.0,47,0.00,,,0.00,weatherlink.com 1.10,2013-06-22 00:07:00,
2013-06-21 20:22:00,82.9,61.0,29.97,WSW,251,2.0,10.0,48,0.00,,,0.00,weatherlink.com 1.10,2013-06-22 00:22:00,
2013-06-21 20:37:00,82.2,61.0,29.97,West,259,2.0,11.0,49,0.00,,,0.00,weatherlink.com 1.10,2013-06-22 00:37:00,
2013-06-21 20:52:00,81.4,61.0,29.97,South,186,1.0,9.0,50,0.00,,,0.00,weatherlink.com 1.10,2013-06-22 00:52:00,
2013-06-21 21:07:00,80.7,61.0,29.97,West,277,1.0,10.0,51,0.00,,,0.00,weatherlink.com 1.10,2013-06-22 01:07:00,
2013-06-21 21:22:00,79.9,61.0,29.98,SW,228,2.0,8.0,52,0.00,,,0.00,weatherlink.com 1.10,2013-06-22 01:22:00,
2013-06-21 21:37:00,79.3,61.0,29.98,West,266,1.0,6.0,54,0.00,,,0.00,weatherlink.com 1.10,2013-06-22 01:37:00,
2013-06-21 21:52:00,78.5,61.0,29.99,SW,218,3.0,6.0,56,0.00,,,0.00,weatherlink.com 1.10,2013-06-22 01:52:00,
2013-06-21 22:07:00,77.6,62.0,30.00,SW,226,1.0,4.0,58,0.00,,,0.00,weatherlink.com 1.10,2013-06-22 02:07:00,
2013-06-21 22:22:00,76.9,62.0,30.00,SSE,158,3.0,5.0,60,0.00,,,0.00,weatherlink.com 1.10,2013-06-22 02:22:00,
2013-06-21 22:37:00,76.5,61.0,30.00,SW,229,1.0,4.0,60,0.00,,,0.00,weatherlink.com 1.10,2013-06-22 02:37:00,
2013-06-21 22:52:00,76.2,61.0,30.00,WSW,240,1.0,7.0,60,0.00,,,0.00,weatherlink.com 1.10,2013-06-22 02:52:00,
2013-06-21 23:07:00,76.1,61.0,30.00,SSE,162,1.0,10.0,59,0.00,,,0.00,weatherlink.com 1.10,2013-06-22 03:07:00,
2013-06-21 23:22:00,76.2,60.0,29.99,WSW,242,3.0,10.0,58,0.00,,,0.00,weatherlink.com 1.10,2013-06-22 03:22:00,
2013-06-21 23:37:00,76.2,60.0,29.99,SSE,150,1.0,8.0,58,0.00,,,0.00,weatherlink.com 1.10,2013-06-22 03:37:00,
2013-06-21 23:52:00,76.4,60.0,29.99,SW,226,6.0,9.0,57,0.00,,,0.00,weatherlink.com 1.10,2013-06-22 03:52:00,